sensor_id;sensor_type;location;lat;lon;timestamp;pressure;altitude;pressure_sealevel;temperature;humidity
61900;BME280;47853;55.890;37.664;2023-09-30T00:01:00;99675.22;;;19.95;93.72
61900;BME280;47853;55.890;37.664;2023-09-30T00:03:27;99684.75;;;20.17;92.68
61900;BME280;47853;55.890;37.664;2023-09-30T00:05:55;99682.47;;;19.95;94.11
61900;BME280;47853;55.890;37.664;2023-09-30T00:08:21;99673.44;;;19.82;96.02
61900;BME280;47853;55.890;37.664;2023-09-30T00:10:47;99674.75;;;19.73;96.66
61900;BME280;47853;55.890;37.664;2023-09-30T00:13:13;99683.56;;;19.62;97.82
61900;BME280;47853;55.890;37.664;2023-09-30T00:15:38;99678.22;;;19.55;97.93
61900;BME280;47853;55.890;37.664;2023-09-30T00:18:04;99679.09;;;19.49;99.28
61900;BME280;47853;55.890;37.664;2023-09-30T00:20:29;99681.81;;;19.49;98.87
61900;BME280;47853;55.890;37.664;2023-09-30T00:22:55;99671.41;;;19.78;98.69
61900;BME280;47853;55.890;37.664;2023-09-30T00:25:20;99682.50;;;19.88;95.28
61900;BME280;47853;55.890;37.664;2023-09-30T00:27:47;99686.97;;;19.25;100.00
61900;BME280;47853;55.890;37.664;2023-09-30T00:30:12;99676.03;;;19.45;100.00
61900;BME280;47853;55.890;37.664;2023-09-30T00:32:38;99678.59;;;19.01;100.00
61900;BME280;47853;55.890;37.664;2023-09-30T00:35:03;99677.81;;;18.87;100.00
61900;BME280;47853;55.890;37.664;2023-09-30T00:37:29;99672.06;;;18.83;100.00
61900;BME280;47853;55.890;37.664;2023-09-30T00:39:54;99682.38;;;19.25;100.00
61900;BME280;47853;55.890;37.664;2023-09-30T00:42:19;99670.63;;;18.74;100.00
61900;BME280;47853;55.890;37.664;2023-09-30T00:44:45;99677.66;;;18.75;100.00
61900;BME280;47853;55.890;37.664;2023-09-30T00:47:10;99676.97;;;19.00;100.00
61900;BME280;47853;55.890;37.664;2023-09-30T00:49:36;99677.28;;;18.78;100.00
61900;BME280;47853;55.890;37.664;2023-09-30T00:52:02;99673.94;;;18.76;100.00
61900;BME280;47853;55.890;37.664;2023-09-30T00:54:28;99655.50;;;18.80;100.00
61900;BME280;47853;55.890;37.664;2023-09-30T00:56:55;99668.94;;;19.25;100.00
61900;BME280;47853;55.890;37.664;2023-09-30T00:59:20;99665.59;;;19.81;99.81
61900;BME280;47853;55.890;37.664;2023-09-30T01:01:46;99663.84;;;19.42;100.00
61900;BME280;47853;55.890;37.664;2023-09-30T01:04:12;99667.97;;;19.45;100.00
61900;BME280;47853;55.890;37.664;2023-09-30T01:06:38;99660.88;;;19.19;100.00
61900;BME280;47853;55.890;37.664;2023-09-30T01:09:04;99666.63;;;19.29;100.00
61900;BME280;47853;55.890;37.664;2023-09-30T01:11:30;99650.56;;;18.77;100.00
61900;BME280;47853;55.890;37.664;2023-09-30T01:13:55;99649.72;;;18.76;100.00
61900;BME280;47853;55.890;37.664;2023-09-30T01:16:21;99665.56;;;18.52;100.00
61900;BME280;47853;55.890;37.664;2023-09-30T01:18:46;99658.13;;;18.48;100.00
61900;BME280;47853;55.890;37.664;2023-09-30T01:21:12;99666.97;;;18.62;100.00
61900;BME280;47853;55.890;37.664;2023-09-30T01:23:37;99652.16;;;18.46;100.00
61900;BME280;47853;55.890;37.664;2023-09-30T01:26:04;99663.50;;;19.00;100.00
61900;BME280;47853;55.890;37.664;2023-09-30T01:28:32;99640.53;;;19.30;100.00
61900;BME280;47853;55.890;37.664;2023-09-30T01:34:26;99594.88;;;18.77;100.00
61900;BME280;47853;55.890;37.664;2023-09-30T01:36:58;99591.09;;;18.53;100.00
61900;BME280;47853;55.890;37.664;2023-09-30T01:39:42;99651.16;;;18.86;100.00
61900;BME280;47853;55.890;37.664;2023-09-30T01:42:13;99652.06;;;18.66;100.00
61900;BME280;47853;55.890;37.664;2023-09-30T01:44:49;99581.59;;;18.05;100.00
61900;BME280;47853;55.890;37.664;2023-09-30T01:47:24;99590.69;;;18.04;100.00
61900;BME280;47853;55.890;37.664;2023-09-30T01:50:13;99606.72;;;18.31;100.00
61900;BME280;47853;55.890;37.664;2023-09-30T01:52:59;99641.53;;;18.05;100.00
61900;BME280;47853;55.890;37.664;2023-09-30T01:55:30;99593.22;;;17.72;100.00
61900;BME280;47853;55.890;37.664;2023-09-30T01:58:04;99587.47;;;17.68;100.00
61900;BME280;47853;55.890;37.664;2023-09-30T02:00:30;99651.38;;;18.32;100.00
61900;BME280;47853;55.890;37.664;2023-09-30T02:03:04;99596.56;;;17.60;100.00
61900;BME280;47853;55.890;37.664;2023-09-30T02:05:32;99605.56;;;18.00;100.00
61900;BME280;47853;55.890;37.664;2023-09-30T02:08:31;99640.22;;;18.35;100.00
61900;BME280;47853;55.890;37.664;2023-09-30T02:11:17;99647.38;;;18.54;100.00
61900;BME280;47853;55.890;37.664;2023-09-30T02:13:56;99588.63;;;18.06;100.00
61900;BME280;47853;55.890;37.664;2023-09-30T02:16:23;99573.00;;;16.88;100.00
61900;BME280;47853;55.890;37.664;2023-09-30T02:19:04;99571.59;;;17.46;100.00
61900;BME280;47853;55.890;37.664;2023-09-30T02:21:35;99590.19;;;17.21;100.00
61900;BME280;47853;55.890;37.664;2023-09-30T02:24:27;99572.44;;;17.20;100.00
61900;BME280;47853;55.890;37.664;2023-09-30T02:27:00;99557.34;;;17.12;100.00
61900;BME280;47853;55.890;37.664;2023-09-30T02:29:28;99565.16;;;16.87;100.00
61900;BME280;47853;55.890;37.664;2023-09-30T02:32:14;99550.00;;;16.38;100.00
61900;BME280;47853;55.890;37.664;2023-09-30T02:34:45;99602.50;;;16.95;100.00
61900;BME280;47853;55.890;37.664;2023-09-30T02:37:31;99635.81;;;17.41;100.00
61900;BME280;47853;55.890;37.664;2023-09-30T02:43:14;99628.09;;;17.85;100.00
61900;BME280;47853;55.890;37.664;2023-09-30T02:45:50;99592.81;;;16.94;100.00
61900;BME280;47853;55.890;37.664;2023-09-30T02:48:21;99588.22;;;16.67;100.00
61900;BME280;47853;55.890;37.664;2023-09-30T02:50:51;99632.28;;;17.47;100.00
61900;BME280;47853;55.890;37.664;2023-09-30T02:55:53;99597.72;;;16.77;100.00
61900;BME280;47853;55.890;37.664;2023-09-30T02:58:24;99582.44;;;16.71;100.00
61900;BME280;47853;55.890;37.664;2023-09-30T03:00:53;99581.00;;;16.61;100.00
61900;BME280;47853;55.890;37.664;2023-09-30T03:03:24;99547.84;;;17.23;100.00
61900;BME280;47853;55.890;37.664;2023-09-30T03:08:58;99575.31;;;17.05;100.00
61900;BME280;47853;55.890;37.664;2023-09-30T03:11:29;99574.63;;;16.82;100.00
61900;BME280;47853;55.890;37.664;2023-09-30T03:16:53;99533.06;;;16.24;100.00
61900;BME280;47853;55.890;37.664;2023-09-30T03:19:27;99617.56;;;16.89;100.00
61900;BME280;47853;55.890;37.664;2023-09-30T03:21:52;99553.19;;;16.82;100.00
61900;BME280;47853;55.890;37.664;2023-09-30T03:24:21;99616.31;;;16.92;100.00
61900;BME280;47853;55.890;37.664;2023-09-30T03:26:55;99556.25;;;16.59;100.00
61900;BME280;47853;55.890;37.664;2023-09-30T03:35:07;99528.53;;;16.32;100.00
61900;BME280;47853;55.890;37.664;2023-09-30T03:37:35;99611.13;;;16.77;100.00
61900;BME280;47853;55.890;37.664;2023-09-30T03:40:22;99557.50;;;16.08;100.00
61900;BME280;47853;55.890;37.664;2023-09-30T03:45:46;99546.16;;;16.95;100.00
61900;BME280;47853;55.890;37.664;2023-09-30T03:51:12;99591.38;;;16.98;100.00
61900;BME280;47853;55.890;37.664;2023-09-30T03:53:46;99609.03;;;16.59;100.00
61900;BME280;47853;55.890;37.664;2023-09-30T03:56:17;99567.19;;;16.02;100.00
61900;BME280;47853;55.890;37.664;2023-09-30T03:58:47;99569.50;;;16.19;100.00
61900;BME280;47853;55.890;37.664;2023-09-30T04:04:26;99601.44;;;16.76;100.00
61900;BME280;47853;55.890;37.664;2023-09-30T04:06:56;99534.19;;;16.91;100.00
61900;BME280;47853;55.890;37.664;2023-09-30T04:12:25;99584.38;;;17.37;100.00
61900;BME280;47853;55.890;37.664;2023-09-30T04:15:13;99614.53;;;17.13;100.00
61900;BME280;47853;55.890;37.664;2023-09-30T04:17:48;99551.59;;;17.29;100.00
61900;BME280;47853;55.890;37.664;2023-09-30T04:20:29;99567.78;;;16.53;100.00
61900;BME280;47853;55.890;37.664;2023-09-30T04:23:03;99545.97;;;16.90;100.00
61900;BME280;47853;55.890;37.664;2023-09-30T04:25:46;99607.31;;;17.27;100.00
61900;BME280;47853;55.890;37.664;2023-09-30T04:28:18;99541.84;;;16.94;100.00
61900;BME280;47853;55.890;37.664;2023-09-30T04:31:17;99539.53;;;17.65;100.00
61900;BME280;47853;55.890;37.664;2023-09-30T04:34:28;99581.22;;;17.81;100.00
61900;BME280;47853;55.890;37.664;2023-09-30T04:36:58;99544.50;;;17.61;100.00
61900;BME280;47853;55.890;37.664;2023-09-30T04:42:39;99564.81;;;17.23;100.00
61900;BME280;47853;55.890;37.664;2023-09-30T04:47:57;99565.59;;;18.23;100.00
61900;BME280;47853;55.890;37.664;2023-09-30T04:50:23;99547.34;;;18.39;100.00
61900;BME280;47853;55.890;37.664;2023-09-30T04:52:48;99547.53;;;17.85;100.00
61900;BME280;47853;55.890;37.664;2023-09-30T04:58:46;99610.81;;;18.40;100.00
61900;BME280;47853;55.890;37.664;2023-09-30T05:01:19;99583.28;;;18.45;100.00
61900;BME280;47853;55.890;37.664;2023-09-30T05:04:13;99611.97;;;18.58;100.00
61900;BME280;47853;55.890;37.664;2023-09-30T05:06:46;99553.00;;;18.24;100.00
61900;BME280;47853;55.890;37.664;2023-09-30T05:12:08;99599.88;;;18.80;100.00
61900;BME280;47853;55.890;37.664;2023-09-30T05:14:45;99576.38;;;19.70;95.69
61900;BME280;47853;55.890;37.664;2023-09-30T05:17:16;99595.78;;;18.96;100.00
61900;BME280;47853;55.890;37.664;2023-09-30T05:19:48;99572.94;;;19.12;100.00
61900;BME280;47853;55.890;37.664;2023-09-30T05:22:18;99538.34;;;18.52;100.00
61900;BME280;47853;55.890;37.664;2023-09-30T05:24:59;99573.72;;;19.20;97.91
61900;BME280;47853;55.890;37.664;2023-09-30T05:27:33;99566.31;;;18.83;100.00
61900;BME280;47853;55.890;37.664;2023-09-30T05:30:18;99559.94;;;19.09;96.85
61900;BME280;47853;55.890;37.664;2023-09-30T05:35:44;99603.38;;;19.38;100.00
61900;BME280;47853;55.890;37.664;2023-09-30T05:38:17;99557.81;;;19.37;98.63
61900;BME280;47853;55.890;37.664;2023-09-30T05:40:42;99538.63;;;19.89;90.16
61900;BME280;47853;55.890;37.664;2023-09-30T05:43:25;99534.72;;;19.48;94.39
61900;BME280;47853;55.890;37.664;2023-09-30T05:46:30;99544.13;;;18.88;100.00
61900;BME280;47853;55.890;37.664;2023-09-30T05:49:11;99534.00;;;20.46;90.68
61900;BME280;47853;55.890;37.664;2023-09-30T05:51:37;99545.69;;;19.71;93.52
61900;BME280;47853;55.890;37.664;2023-09-30T05:54:16;99581.50;;;21.43;86.73
61900;BME280;47853;55.890;37.664;2023-09-30T05:57:09;99587.72;;;20.78;85.95
61900;BME280;47853;55.890;37.664;2023-09-30T06:05:20;99529.88;;;21.93;75.96
61900;BME280;47853;55.890;37.664;2023-09-30T06:07:46;99521.94;;;22.44;68.79
61900;BME280;47853;55.890;37.664;2023-09-30T06:10:17;99557.16;;;23.24;68.47
61900;BME280;47853;55.890;37.664;2023-09-30T06:12:42;99537.34;;;23.41;64.35
61900;BME280;47853;55.890;37.664;2023-09-30T06:15:08;99547.00;;;22.10;73.27
61900;BME280;47853;55.890;37.664;2023-09-30T06:17:39;99549.84;;;23.08;67.59
61900;BME280;47853;55.890;37.664;2023-09-30T06:20:10;99505.19;;;22.93;65.68
61900;BME280;47853;55.890;37.664;2023-09-30T06:22:39;99526.13;;;23.71;65.43
61900;BME280;47853;55.890;37.664;2023-09-30T06:25:14;99515.06;;;22.99;69.64
61900;BME280;47853;55.890;37.664;2023-09-30T06:27:39;99547.88;;;25.09;58.46
61900;BME280;47853;55.890;37.664;2023-09-30T06:30:05;99495.56;;;23.59;61.78
61900;BME280;47853;55.890;37.664;2023-09-30T06:32:31;99545.59;;;23.90;63.04
61900;BME280;47853;55.890;37.664;2023-09-30T06:34:57;99509.38;;;22.38;70.62
61900;BME280;47853;55.890;37.664;2023-09-30T06:37:22;99498.44;;;22.62;67.51
61900;BME280;47853;55.890;37.664;2023-09-30T06:39:51;99504.44;;;21.53;79.10
61900;BME280;47853;55.890;37.664;2023-09-30T06:42:22;99517.22;;;21.81;76.84
61900;BME280;47853;55.890;37.664;2023-09-30T06:44:50;99554.13;;;21.87;80.00
61900;BME280;47853;55.890;37.664;2023-09-30T06:47:16;99554.34;;;22.27;73.42
61900;BME280;47853;55.890;37.664;2023-09-30T06:49:44;99530.88;;;22.15;72.12
61900;BME280;47853;55.890;37.664;2023-09-30T06:52:09;99499.19;;;20.98;78.61
61900;BME280;47853;55.890;37.664;2023-09-30T06:54:35;99508.69;;;21.49;77.56
61900;BME280;47853;55.890;37.664;2023-09-30T06:57:00;99554.50;;;21.67;77.76
61900;BME280;47853;55.890;37.664;2023-09-30T06:59:26;99524.88;;;22.42;72.19
61900;BME280;47853;55.890;37.664;2023-09-30T07:01:51;99544.84;;;23.56;66.55
61900;BME280;47853;55.890;37.664;2023-09-30T07:04:16;99538.28;;;24.96;59.49
61900;BME280;47853;55.890;37.664;2023-09-30T07:06:42;99543.44;;;24.37;61.22
61900;BME280;47853;55.890;37.664;2023-09-30T07:09:07;99539.69;;;24.71;58.51
61900;BME280;47853;55.890;37.664;2023-09-30T07:11:33;99542.84;;;26.40;51.81
61900;BME280;47853;55.890;37.664;2023-09-30T07:13:58;99540.97;;;27.28;47.16
61900;BME280;47853;55.890;37.664;2023-09-30T07:16:24;99535.13;;;26.05;48.17
61900;BME280;47853;55.890;37.664;2023-09-30T07:18:49;99538.47;;;27.58;44.97
61900;BME280;47853;55.890;37.664;2023-09-30T07:21:15;99530.94;;;26.98;46.33
61900;BME280;47853;55.890;37.664;2023-09-30T07:23:40;99532.25;;;27.26;46.71
61900;BME280;47853;55.890;37.664;2023-09-30T07:26:05;99535.50;;;26.45;49.05
61900;BME280;47853;55.890;37.664;2023-09-30T07:28:31;99531.78;;;25.88;51.50
61900;BME280;47853;55.890;37.664;2023-09-30T07:30:56;99542.09;;;27.01;47.00
61900;BME280;47853;55.890;37.664;2023-09-30T07:33:21;99534.53;;;25.88;51.61
61900;BME280;47853;55.890;37.664;2023-09-30T07:35:47;99535.31;;;25.83;53.07
61900;BME280;47853;55.890;37.664;2023-09-30T07:38:12;99536.69;;;25.43;55.40
61900;BME280;47853;55.890;37.664;2023-09-30T07:40:38;99531.84;;;23.36;65.18
61900;BME280;47853;55.890;37.664;2023-09-30T07:43:03;99529.59;;;25.37;56.33
61900;BME280;47853;55.890;37.664;2023-09-30T07:45:28;99512.00;;;26.08;52.40
61900;BME280;47853;55.890;37.664;2023-09-30T07:47:54;99524.09;;;25.26;54.66
61900;BME280;47853;55.890;37.664;2023-09-30T07:50:19;99524.91;;;27.21;48.05
61900;BME280;47853;55.890;37.664;2023-09-30T07:52:44;99522.19;;;26.70;50.46
61900;BME280;47853;55.890;37.664;2023-09-30T07:55:10;99526.47;;;25.55;52.54
61900;BME280;47853;55.890;37.664;2023-09-30T07:57:36;99511.34;;;24.89;57.15
61900;BME280;47853;55.890;37.664;2023-09-30T08:00:02;99520.91;;;24.97;55.41
61900;BME280;47853;55.890;37.664;2023-09-30T08:02:28;99508.66;;;25.90;53.18
61900;BME280;47853;55.890;37.664;2023-09-30T08:04:59;99515.94;;;25.21;55.62
61900;BME280;47853;55.890;37.664;2023-09-30T08:07:25;99503.75;;;24.58;58.66
61900;BME280;47853;55.890;37.664;2023-09-30T08:09:50;99520.66;;;24.98;57.48
61900;BME280;47853;55.890;37.664;2023-09-30T08:12:15;99513.44;;;24.76;60.64
61900;BME280;47853;55.890;37.664;2023-09-30T08:14:41;99522.97;;;24.02;61.36
61900;BME280;47853;55.890;37.664;2023-09-30T08:17:09;99504.72;;;25.60;54.74
61900;BME280;47853;55.890;37.664;2023-09-30T08:19:34;99510.03;;;25.88;53.09
61900;BME280;47853;55.890;37.664;2023-09-30T08:21:59;99517.28;;;26.61;49.13
61900;BME280;47853;55.890;37.664;2023-09-30T08:24:25;99488.38;;;27.17;44.72
61900;BME280;47853;55.890;37.664;2023-09-30T08:26:50;99514.28;;;26.53;47.55
61900;BME280;47853;55.890;37.664;2023-09-30T08:29:16;99512.22;;;24.67;55.51
61900;BME280;47853;55.890;37.664;2023-09-30T08:31:44;99489.88;;;24.87;56.60
61900;BME280;47853;55.890;37.664;2023-09-30T08:34:12;99518.84;;;25.52;52.00
61900;BME280;47853;55.890;37.664;2023-09-30T08:36:38;99507.06;;;26.00;50.61
61900;BME280;47853;55.890;37.664;2023-09-30T08:39:06;99499.63;;;25.74;51.64
61900;BME280;47853;55.890;37.664;2023-09-30T08:41:33;99478.47;;;24.90;53.33
61900;BME280;47853;55.890;37.664;2023-09-30T08:44:03;99496.44;;;24.31;59.81
61900;BME280;47853;55.890;37.664;2023-09-30T08:46:33;99477.19;;;24.66;57.67
61900;BME280;47853;55.890;37.664;2023-09-30T08:49:03;99488.66;;;26.23;51.34
61900;BME280;47853;55.890;37.664;2023-09-30T08:51:29;99501.53;;;24.83;54.67
61900;BME280;47853;55.890;37.664;2023-09-30T08:53:55;99490.84;;;26.31;49.21
61900;BME280;47853;55.890;37.664;2023-09-30T08:56:27;99479.91;;;26.10;51.01
61900;BME280;47853;55.890;37.664;2023-09-30T08:58:57;99482.47;;;28.31;41.56
61900;BME280;47853;55.890;37.664;2023-09-30T09:01:23;99469.63;;;26.64;46.71
61900;BME280;47853;55.890;37.664;2023-09-30T09:03:49;99471.00;;;26.98;45.02
61900;BME280;47853;55.890;37.664;2023-09-30T09:06:14;99461.03;;;27.48;43.69
61900;BME280;47853;55.890;37.664;2023-09-30T09:08:39;99460.16;;;27.69;43.64
61900;BME280;47853;55.890;37.664;2023-09-30T09:11:05;99462.91;;;28.88;40.48
61900;BME280;47853;55.890;37.664;2023-09-30T09:13:51;99484.34;;;26.58;44.70
61900;BME280;47853;55.890;37.664;2023-09-30T09:16:17;99463.91;;;27.02;44.92
61900;BME280;47853;55.890;37.664;2023-09-30T09:18:43;99477.09;;;25.79;46.95
61900;BME280;47853;55.890;37.664;2023-09-30T09:23:42;99465.06;;;27.72;41.94
61900;BME280;47853;55.890;37.664;2023-09-30T09:26:09;99473.88;;;26.03;44.54
61900;BME280;47853;55.890;37.664;2023-09-30T09:28:36;99457.16;;;25.53;44.84
61900;BME280;47853;55.890;37.664;2023-09-30T09:31:01;99452.81;;;24.71;49.10
61900;BME280;47853;55.890;37.664;2023-09-30T09:33:36;99466.75;;;25.23;45.18
61900;BME280;47853;55.890;37.664;2023-09-30T09:36:01;99475.22;;;24.88;47.35
61900;BME280;47853;55.890;37.664;2023-09-30T09:38:43;99451.84;;;26.04;43.68
61900;BME280;47853;55.890;37.664;2023-09-30T09:41:08;99456.28;;;26.31;41.67
61900;BME280;47853;55.890;37.664;2023-09-30T09:43:38;99460.66;;;26.48;41.38
61900;BME280;47853;55.890;37.664;2023-09-30T09:46:07;99440.75;;;26.89;40.57
61900;BME280;47853;55.890;37.664;2023-09-30T09:48:35;99462.16;;;25.28;44.72
61900;BME280;47853;55.890;37.664;2023-09-30T09:51:01;99446.75;;;26.86;41.11
61900;BME280;47853;55.890;37.664;2023-09-30T09:53:29;99433.53;;;27.34;39.85
61900;BME280;47853;55.890;37.664;2023-09-30T09:55:56;99444.66;;;28.49;36.48
61900;BME280;47853;55.890;37.664;2023-09-30T09:58:22;99454.13;;;26.39;41.38
61900;BME280;47853;55.890;37.664;2023-09-30T10:00:49;99455.19;;;27.00;40.42
61900;BME280;47853;55.890;37.664;2023-09-30T10:03:14;99442.66;;;26.21;42.11
61900;BME280;47853;55.890;37.664;2023-09-30T10:05:40;99438.25;;;26.15;42.64
61900;BME280;47853;55.890;37.664;2023-09-30T10:08:07;99440.00;;;25.52;44.26
61900;BME280;47853;55.890;37.664;2023-09-30T10:10:37;99436.41;;;26.72;41.55
61900;BME280;47853;55.890;37.664;2023-09-30T10:13:06;99442.88;;;25.35;44.31
61900;BME280;47853;55.890;37.664;2023-09-30T10:18:04;99408.69;;;24.86;45.51
61900;BME280;47853;55.890;37.664;2023-09-30T10:20:31;99429.13;;;25.52;43.89
61900;BME280;47853;55.890;37.664;2023-09-30T10:25:45;99417.50;;;25.77;43.37
61900;BME280;47853;55.890;37.664;2023-09-30T10:31:21;99417.63;;;26.60;40.35
61900;BME280;47853;55.890;37.664;2023-09-30T10:36:32;99418.97;;;26.68;40.62
61900;BME280;47853;55.890;37.664;2023-09-30T10:38:58;99427.41;;;26.61;39.15
61900;BME280;47853;55.890;37.664;2023-09-30T10:46:49;99412.13;;;24.76;43.88
61900;BME280;47853;55.890;37.664;2023-09-30T10:49:17;99422.66;;;25.63;41.92
61900;BME280;47853;55.890;37.664;2023-09-30T10:51:56;99410.53;;;25.28;43.05
61900;BME280;47853;55.890;37.664;2023-09-30T10:54:23;99408.94;;;26.43;40.61
61900;BME280;47853;55.890;37.664;2023-09-30T10:56:49;99397.44;;;26.67;39.37
61900;BME280;47853;55.890;37.664;2023-09-30T10:59:25;99399.66;;;29.49;34.28
61900;BME280;47853;55.890;37.664;2023-09-30T11:01:51;99400.88;;;28.59;34.27
61900;BME280;47853;55.890;37.664;2023-09-30T11:04:16;99384.25;;;28.85;34.04
61900;BME280;47853;55.890;37.664;2023-09-30T11:06:42;99404.09;;;28.66;34.01
61900;BME280;47853;55.890;37.664;2023-09-30T11:09:08;99398.84;;;26.17;38.93
61900;BME280;47853;55.890;37.664;2023-09-30T11:11:37;99400.09;;;25.68;40.91
61900;BME280;47853;55.890;37.664;2023-09-30T11:14:03;99421.16;;;25.40;40.98
61900;BME280;47853;55.890;37.664;2023-09-30T11:16:29;99382.78;;;26.47;39.18
61900;BME280;47853;55.890;37.664;2023-09-30T11:18:54;99393.00;;;27.17;36.88
61900;BME280;47853;55.890;37.664;2023-09-30T11:21:22;99376.13;;;25.50;40.56
61900;BME280;47853;55.890;37.664;2023-09-30T11:23:47;99373.81;;;25.20;42.04
61900;BME280;47853;55.890;37.664;2023-09-30T11:26:13;99379.81;;;25.33;41.27
61900;BME280;47853;55.890;37.664;2023-09-30T11:28:40;99372.16;;;26.09;39.36
61900;BME280;47853;55.890;37.664;2023-09-30T11:31:08;99364.50;;;26.06;39.36
61900;BME280;47853;55.890;37.664;2023-09-30T11:33:55;99357.44;;;26.05;38.37
61900;BME280;47853;55.890;37.664;2023-09-30T11:36:21;99362.09;;;26.51;37.89
61900;BME280;47853;55.890;37.664;2023-09-30T11:38:47;99365.63;;;26.57;37.83
61900;BME280;47853;55.890;37.664;2023-09-30T11:41:13;99351.47;;;26.08;39.36
61900;BME280;47853;55.890;37.664;2023-09-30T11:43:57;99348.97;;;25.75;39.46
61900;BME280;47853;55.890;37.664;2023-09-30T11:46:22;99359.06;;;25.70;40.16
61900;BME280;47853;55.890;37.664;2023-09-30T11:49:01;99348.28;;;25.22;41.21
61900;BME280;47853;55.890;37.664;2023-09-30T11:51:28;99359.44;;;25.20;41.95
61900;BME280;47853;55.890;37.664;2023-09-30T11:53:54;99339.00;;;26.17;39.89
61900;BME280;47853;55.890;37.664;2023-09-30T11:56:20;99344.69;;;26.16;38.63
61900;BME280;47853;55.890;37.664;2023-09-30T11:58:46;99335.13;;;25.98;40.16
61900;BME280;47853;55.890;37.664;2023-09-30T12:01:11;99341.69;;;26.38;39.35
61900;BME280;47853;55.890;37.664;2023-09-30T12:03:40;99349.75;;;25.55;40.72
61900;BME280;47853;55.890;37.664;2023-09-30T12:06:17;99326.69;;;26.51;38.42
61900;BME280;47853;55.890;37.664;2023-09-30T12:08:43;99315.00;;;25.78;40.17
61900;BME280;47853;55.890;37.664;2023-09-30T12:11:18;99302.75;;;25.81;39.97
61900;BME280;47853;55.890;37.664;2023-09-30T12:13:43;99349.28;;;25.79;40.36
61900;BME280;47853;55.890;37.664;2023-09-30T12:16:09;99340.00;;;25.65;40.69
61900;BME280;47853;55.890;37.664;2023-09-30T12:18:34;99358.78;;;25.76;40.07
61900;BME280;47853;55.890;37.664;2023-09-30T12:21:12;99315.63;;;25.06;41.57
61900;BME280;47853;55.890;37.664;2023-09-30T12:23:38;99331.88;;;26.01;39.69
61900;BME280;47853;55.890;37.664;2023-09-30T12:26:03;99329.59;;;25.41;40.99
61900;BME280;47853;55.890;37.664;2023-09-30T12:28:29;99329.09;;;25.54;40.47
61900;BME280;47853;55.890;37.664;2023-09-30T12:30:54;99307.41;;;25.75;40.08
61900;BME280;47853;55.890;37.664;2023-09-30T12:33:19;99319.34;;;26.57;37.88
61900;BME280;47853;55.890;37.664;2023-09-30T12:35:45;99329.16;;;25.96;39.05
61900;BME280;47853;55.890;37.664;2023-09-30T12:38:15;99322.34;;;25.77;39.65
61900;BME280;47853;55.890;37.664;2023-09-30T12:40:41;99325.59;;;25.85;40.03
61900;BME280;47853;55.890;37.664;2023-09-30T12:43:06;99329.81;;;25.29;41.61
61900;BME280;47853;55.890;37.664;2023-09-30T12:45:32;99324.00;;;26.04;39.95
61900;BME280;47853;55.890;37.664;2023-09-30T12:47:57;99320.44;;;25.88;40.55
61900;BME280;47853;55.890;37.664;2023-09-30T12:50:22;99329.41;;;25.63;41.29
61900;BME280;47853;55.890;37.664;2023-09-30T12:52:48;99310.66;;;25.77;41.73
61900;BME280;47853;55.890;37.664;2023-09-30T12:55:13;99331.44;;;25.25;43.12
61900;BME280;47853;55.890;37.664;2023-09-30T12:57:39;99297.31;;;25.70;42.97
61900;BME280;47853;55.890;37.664;2023-09-30T13:00:04;99306.56;;;25.64;43.00
61900;BME280;47853;55.890;37.664;2023-09-30T13:02:57;99316.34;;;25.55;42.97
61900;BME280;47853;55.890;37.664;2023-09-30T13:05:22;99304.09;;;25.52;43.87
61900;BME280;47853;55.890;37.664;2023-09-30T13:07:48;99299.50;;;26.25;42.40
61900;BME280;47853;55.890;37.664;2023-09-30T13:10:14;99288.63;;;26.20;41.25
61900;BME280;47853;55.890;37.664;2023-09-30T13:12:39;99301.91;;;25.49;43.15
61900;BME280;47853;55.890;37.664;2023-09-30T13:15:05;99298.09;;;25.50;44.29
61900;BME280;47853;55.890;37.664;2023-09-30T13:17:31;99323.41;;;25.71;42.96
61900;BME280;47853;55.890;37.664;2023-09-30T13:19:56;99300.03;;;25.65;44.25
61900;BME280;47853;55.890;37.664;2023-09-30T13:22:22;99281.00;;;26.06;42.99
61900;BME280;47853;55.890;37.664;2023-09-30T13:24:47;99285.34;;;26.08;42.60
61900;BME280;47853;55.890;37.664;2023-09-30T13:27:12;99287.44;;;25.38;44.92
61900;BME280;47853;55.890;37.664;2023-09-30T13:29:38;99273.06;;;26.57;42.02
61900;BME280;47853;55.890;37.664;2023-09-30T13:32:03;99268.63;;;25.16;45.92
61900;BME280;47853;55.890;37.664;2023-09-30T13:34:29;99275.84;;;26.00;43.57
61900;BME280;47853;55.890;37.664;2023-09-30T13:36:55;99282.34;;;25.62;44.93
61900;BME280;47853;55.890;37.664;2023-09-30T13:39:20;99277.69;;;25.42;46.03
61900;BME280;47853;55.890;37.664;2023-09-30T13:41:45;99274.22;;;25.78;45.23
61900;BME280;47853;55.890;37.664;2023-09-30T13:44:11;99277.47;;;25.65;46.34
61900;BME280;47853;55.890;37.664;2023-09-30T13:46:36;99269.44;;;25.06;48.39
61900;BME280;47853;55.890;37.664;2023-09-30T13:49:02;99269.78;;;25.36;47.46
61900;BME280;47853;55.890;37.664;2023-09-30T13:51:27;99271.84;;;24.97;48.43
61900;BME280;47853;55.890;37.664;2023-09-30T13:53:52;99270.53;;;25.10;48.01
61900;BME280;47853;55.890;37.664;2023-09-30T13:56:18;99269.97;;;24.07;52.50
61900;BME280;47853;55.890;37.664;2023-09-30T13:58:43;99261.50;;;24.41;51.80
61900;BME280;47853;55.890;37.664;2023-09-30T14:01:09;99258.66;;;25.42;47.88
61900;BME280;47853;55.890;37.664;2023-09-30T14:03:34;99266.53;;;25.28;48.79
61900;BME280;47853;55.890;37.664;2023-09-30T14:05:59;99262.13;;;25.17;48.85
61900;BME280;47853;55.890;37.664;2023-09-30T14:08:25;99260.44;;;24.95;49.23
61900;BME280;47853;55.890;37.664;2023-09-30T14:10:50;99253.19;;;25.32;48.24